sensor_id;sensor_type;location;lat;lon;timestamp;pressure;altitude;pressure_sealevel;temperature;humidity
59829;BME280;45708;51.848;107.620;2022-09-14T00:02:54;95761.56;;;10.67;66.40
59829;BME280;45708;51.848;107.620;2022-09-14T00:07:55;95781.09;;;10.73;66.32
59829;BME280;45708;51.848;107.620;2022-09-14T00:12:56;95787.81;;;10.88;65.31
59829;BME280;45708;51.848;107.620;2022-09-14T00:17:57;95797.75;;;10.80;66.29
59829;BME280;45708;51.848;107.620;2022-09-14T00:22:58;95795.69;;;10.42;66.69
59829;BME280;45708;51.848;107.620;2022-09-14T00:27:59;95804.19;;;10.31;68.02
59829;BME280;45708;51.848;107.620;2022-09-14T00:33:00;95802.75;;;10.28;69.16
59829;BME280;45708;51.848;107.620;2022-09-14T00:38:01;95787.84;;;10.07;68.32
59829;BME280;45708;51.848;107.620;2022-09-14T00:43:04;95797.66;;;9.72;68.87
59829;BME280;45708;51.848;107.620;2022-09-14T00:48:05;95797.88;;;9.77;68.73
59829;BME280;45708;51.848;107.620;2022-09-14T00:53:06;95802.19;;;9.92;67.68
59829;BME280;45708;51.848;107.620;2022-09-14T00:58:07;95816.63;;;9.96;67.08
59829;BME280;45708;51.848;107.620;2022-09-14T01:03:08;95804.91;;;10.05;67.04
59829;BME280;45708;51.848;107.620;2022-09-14T01:18:56;95846.63;;;10.23;69.31
59829;BME280;45708;51.848;107.620;2022-09-14T01:24:20;95842.16;;;10.23;68.48
59829;BME280;45708;51.848;107.620;2022-09-14T01:29:46;95837.41;;;10.19;68.48
59829;BME280;45708;51.848;107.620;2022-09-14T01:35:18;95838.72;;;10.29;68.75
59829;BME280;45708;51.848;107.620;2022-09-14T01:40:26;95834.97;;;10.17;69.81
59829;BME280;45708;51.848;107.620;2022-09-14T01:45:29;95810.94;;;9.99;70.89
59829;BME280;45708;51.848;107.620;2022-09-14T01:50:42;95820.47;;;9.87;72.16
59829;BME280;45708;51.848;107.620;2022-09-14T01:56:14;95838.81;;;9.67;71.83
59829;BME280;45708;51.848;107.620;2022-09-14T02:01:24;95846.13;;;9.37;72.05
59829;BME280;45708;51.848;107.620;2022-09-14T02:06:41;95830.16;;;8.89;74.66
59829;BME280;45708;51.848;107.620;2022-09-14T02:11:43;95845.47;;;8.79;76.56
59829;BME280;45708;51.848;107.620;2022-09-14T02:16:44;95839.84;;;8.82;78.15
59829;BME280;45708;51.848;107.620;2022-09-14T02:21:45;95841.94;;;8.93;78.79
59829;BME280;45708;51.848;107.620;2022-09-14T02:26:47;95843.59;;;8.94;79.91
59829;BME280;45708;51.848;107.620;2022-09-14T02:54:00;95846.91;;;8.60;81.71
59829;BME280;45708;51.848;107.620;2022-09-14T02:59:03;95837.94;;;8.76;83.67
59829;BME280;45708;51.848;107.620;2022-09-14T03:04:04;95830.16;;;8.89;84.10
59829;BME280;45708;51.848;107.620;2022-09-14T03:09:05;95817.41;;;8.65;84.27
59829;BME280;45708;51.848;107.620;2022-09-14T03:14:08;95821.66;;;8.87;84.91
59829;BME280;45708;51.848;107.620;2022-09-14T03:19:08;95805.19;;;9.06;85.38
59829;BME280;45708;51.848;107.620;2022-09-14T03:24:09;95796.34;;;8.93;85.20
59829;BME280;45708;51.848;107.620;2022-09-14T03:29:10;95777.63;;;9.09;85.64
59829;BME280;45708;51.848;107.620;2022-09-14T03:34:11;95774.09;;;9.30;86.06
59829;BME280;45708;51.848;107.620;2022-09-14T03:39:12;95763.19;;;8.77;84.89
59829;BME280;45708;51.848;107.620;2022-09-14T03:44:13;95752.28;;;8.59;86.52
59829;BME280;45708;51.848;107.620;2022-09-14T03:49:13;95747.34;;;8.70;86.72
59829;BME280;45708;51.848;107.620;2022-09-14T03:54:14;95735.25;;;8.54;86.17
59829;BME280;45708;51.848;107.620;2022-09-14T03:59:15;95731.25;;;8.37;86.92
59829;BME280;45708;51.848;107.620;2022-09-14T04:04:16;95719.72;;;8.38;87.48
59829;BME280;45708;51.848;107.620;2022-09-14T04:09:17;95711.47;;;8.41;87.81
59829;BME280;45708;51.848;107.620;2022-09-14T04:14:18;95694.47;;;8.44;87.99
59829;BME280;45708;51.848;107.620;2022-09-14T04:19:19;95692.28;;;8.47;88.28
59829;BME280;45708;51.848;107.620;2022-09-14T04:24:19;95670.44;;;8.53;87.79
59829;BME280;45708;51.848;107.620;2022-09-14T04:29:20;95677.66;;;8.45;87.63
59829;BME280;45708;51.848;107.620;2022-09-14T04:34:21;95676.25;;;8.42;87.85
59829;BME280;45708;51.848;107.620;2022-09-14T04:39:22;95649.03;;;8.35;87.36
59829;BME280;45708;51.848;107.620;2022-09-14T04:44:23;95673.56;;;8.64;88.05
59829;BME280;45708;51.848;107.620;2022-09-14T04:49:24;95669.84;;;8.58;88.05
59829;BME280;45708;51.848;107.620;2022-09-14T04:54:24;95671.06;;;8.56;88.35
59829;BME280;45708;51.848;107.620;2022-09-14T04:59:25;95652.09;;;8.67;88.07
59829;BME280;45708;51.848;107.620;2022-09-14T05:04:26;95643.03;;;8.76;88.01
59829;BME280;45708;51.848;107.620;2022-09-14T05:09:27;95621.34;;;8.80;87.66
59829;BME280;45708;51.848;107.620;2022-09-14T05:14:28;95596.88;;;8.45;86.54
59829;BME280;45708;51.848;107.620;2022-09-14T05:19:29;95589.91;;;8.66;87.83
59829;BME280;45708;51.848;107.620;2022-09-14T05:24:30;95589.84;;;9.00;87.97
59829;BME280;45708;51.848;107.620;2022-09-14T05:29:31;95568.31;;;8.83;87.15
59829;BME280;45708;51.848;107.620;2022-09-14T05:34:32;95601.94;;;8.81;87.22
59829;BME280;45708;51.848;107.620;2022-09-14T05:39:32;95585.38;;;8.60;86.70
59829;BME280;45708;51.848;107.620;2022-09-14T05:44:33;95578.69;;;8.57;87.07
59829;BME280;45708;51.848;107.620;2022-09-14T05:49:34;95587.56;;;8.49;87.10
59829;BME280;45708;51.848;107.620;2022-09-14T05:54:35;95584.25;;;8.41;87.46
59829;BME280;45708;51.848;107.620;2022-09-14T05:59:35;95592.28;;;8.33;87.60
59829;BME280;45708;51.848;107.620;2022-09-14T06:04:36;95590.47;;;8.33;86.80
59829;BME280;45708;51.848;107.620;2022-09-14T06:09:37;95584.28;;;8.19;85.71
59829;BME280;45708;51.848;107.620;2022-09-14T06:14:38;95559.47;;;8.29;86.55
59829;BME280;45708;51.848;107.620;2022-09-14T06:19:39;95562.25;;;8.48;86.99
59829;BME280;45708;51.848;107.620;2022-09-14T06:24:39;95559.63;;;8.55;86.88
59829;BME280;45708;51.848;107.620;2022-09-14T06:29:40;95549.88;;;8.42;86.38
59829;BME280;45708;51.848;107.620;2022-09-14T06:34:41;95542.97;;;8.41;86.46
59829;BME280;45708;51.848;107.620;2022-09-14T06:39:42;95530.88;;;8.53;86.36
59829;BME280;45708;51.848;107.620;2022-09-14T06:44:43;95512.66;;;8.59;85.41
59829;BME280;45708;51.848;107.620;2022-09-14T06:49:44;95511.03;;;8.58;85.04
59829;BME280;45708;51.848;107.620;2022-09-14T06:54:45;95513.53;;;8.66;85.61
59829;BME280;45708;51.848;107.620;2022-09-14T06:59:45;95508.16;;;9.00;86.23
59829;BME280;45708;51.848;107.620;2022-09-14T07:04:46;95505.59;;;9.27;86.76
59829;BME280;45708;51.848;107.620;2022-09-14T07:09:47;95514.94;;;9.36;85.92
59829;BME280;45708;51.848;107.620;2022-09-14T07:14:48;95515.94;;;9.28;84.68
59829;BME280;45708;51.848;107.620;2022-09-14T07:19:49;95519.56;;;9.21;84.00
59829;BME280;45708;51.848;107.620;2022-09-14T07:24:50;95510.06;;;9.33;84.43
59829;BME280;45708;51.848;107.620;2022-09-14T07:29:50;95506.59;;;9.26;83.92
59829;BME280;45708;51.848;107.620;2022-09-14T07:34:51;95495.47;;;9.24;82.70
59829;BME280;45708;51.848;107.620;2022-09-14T07:39:52;95505.38;;;9.22;83.61
59829;BME280;45708;51.848;107.620;2022-09-14T07:44:53;95496.84;;;9.13;82.27
59829;BME280;45708;51.848;107.620;2022-09-14T07:49:54;95487.72;;;9.02;81.63
59829;BME280;45708;51.848;107.620;2022-09-14T07:54:55;95484.47;;;9.13;83.58
59829;BME280;45708;51.848;107.620;2022-09-14T07:59:56;95476.81;;;9.32;83.62
59829;BME280;45708;51.848;107.620;2022-09-14T08:04:56;95474.59;;;9.42;82.53
59829;BME280;45708;51.848;107.620;2022-09-14T08:09:59;95459.75;;;9.34;81.98
59829;BME280;45708;51.848;107.620;2022-09-14T08:15:00;95461.19;;;9.37;81.44
59829;BME280;45708;51.848;107.620;2022-09-14T08:20:01;95467.88;;;9.26;81.25
59829;BME280;45708;51.848;107.620;2022-09-14T08:25:02;95462.38;;;9.01;79.80
59829;BME280;45708;51.848;107.620;2022-09-14T08:30:04;95447.34;;;8.89;81.52
59829;BME280;45708;51.848;107.620;2022-09-14T08:35:05;95438.78;;;8.80;81.81
59829;BME280;45708;51.848;107.620;2022-09-14T08:40:08;95437.38;;;8.77;83.06
59829;BME280;45708;51.848;107.620;2022-09-14T08:45:13;95445.72;;;8.81;83.79
59829;BME280;45708;51.848;107.620;2022-09-14T08:50:18;95442.97;;;8.54;84.14
59829;BME280;45708;51.848;107.620;2022-09-14T09:00:48;95453.84;;;7.69;83.27
59829;BME280;45708;51.848;107.620;2022-09-14T09:06:21;95437.56;;;7.59;83.44
59829;BME280;45708;51.848;107.620;2022-09-14T09:11:26;95442.31;;;7.70;85.10
59829;BME280;45708;51.848;107.620;2022-09-14T09:16:31;95434.19;;;7.65;83.39
59829;BME280;45708;51.848;107.620;2022-09-14T09:21:39;95433.25;;;7.79;84.98
59829;BME280;45708;51.848;107.620;2022-09-14T09:26:42;95446.25;;;7.81;85.63
59829;BME280;45708;51.848;107.620;2022-09-14T09:31:47;95454.38;;;7.92;86.43
59829;BME280;45708;51.848;107.620;2022-09-14T09:36:48;95450.75;;;7.93;86.66
59829;BME280;45708;51.848;107.620;2022-09-14T09:47:36;95438.28;;;7.74;85.07
59829;BME280;45708;51.848;107.620;2022-09-14T09:52:37;95456.69;;;7.74;85.93
59829;BME280;45708;51.848;107.620;2022-09-14T09:57:47;95463.44;;;7.83;86.91
59829;BME280;45708;51.848;107.620;2022-09-14T10:02:49;95459.44;;;7.87;87.29
59829;BME280;45708;51.848;107.620;2022-09-14T10:07:54;95465.88;;;7.85;88.05
59829;BME280;45708;51.848;107.620;2022-09-14T10:12:55;95459.19;;;7.82;88.04
59829;BME280;45708;51.848;107.620;2022-09-14T10:28:31;95459.31;;;7.74;89.02
59829;BME280;45708;51.848;107.620;2022-09-14T10:33:33;95448.59;;;7.69;88.91
59829;BME280;45708;51.848;107.620;2022-09-14T10:59:34;95447.50;;;7.36;88.47
59829;BME280;45708;51.848;107.620;2022-09-14T11:05:05;95455.28;;;7.44;89.43
59829;BME280;45708;51.848;107.620;2022-09-14T11:15:29;95441.25;;;7.37;89.71
59829;BME280;45708;51.848;107.620;2022-09-14T11:21:28;95462.66;;;7.33;90.40
59829;BME280;45708;51.848;107.620;2022-09-14T11:26:02;95456.31;;;7.21;89.87
59829;BME280;45708;51.848;107.620;2022-09-14T11:33:15;95440.31;;;6.80;89.31
59829;BME280;45708;51.848;107.620;2022-09-14T11:38:20;95439.34;;;6.81;90.16
59829;BME280;45708;51.848;107.620;2022-09-14T11:43:32;95421.09;;;6.73;90.97
59829;BME280;45708;51.848;107.620;2022-09-14T11:48:45;95419.22;;;6.88;91.56
59829;BME280;45708;51.848;107.620;2022-09-14T11:53:48;95437.41;;;6.90;90.98
59829;BME280;45708;51.848;107.620;2022-09-14T11:58:49;95434.91;;;6.82;90.79
59829;BME280;45708;51.848;107.620;2022-09-14T12:08:52;95419.63;;;6.49;90.91
59829;BME280;45708;51.848;107.620;2022-09-14T12:14:13;95439.16;;;6.61;91.43
59829;BME280;45708;51.848;107.620;2022-09-14T12:19:16;95432.44;;;6.59;91.60
59829;BME280;45708;51.848;107.620;2022-09-14T12:24:20;95462.81;;;6.83;92.05
59829;BME280;45708;51.848;107.620;2022-09-14T12:29:30;95469.31;;;6.87;91.75
59829;BME280;45708;51.848;107.620;2022-09-14T12:34:32;95482.13;;;6.96;91.51
59829;BME280;45708;51.848;107.620;2022-09-14T12:39:34;95476.19;;;6.88;91.78
59829;BME280;45708;51.848;107.620;2022-09-14T12:44:42;95450.97;;;6.72;91.91
59829;BME280;45708;51.848;107.620;2022-09-14T12:49:43;95446.75;;;6.56;92.21
59829;BME280;45708;51.848;107.620;2022-09-14T13:00:16;95451.25;;;6.41;92.42
59829;BME280;45708;51.848;107.620;2022-09-14T13:05:21;95438.56;;;6.30;92.33
59829;BME280;45708;51.848;107.620;2022-09-14T13:10:32;95439.19;;;6.32;92.63
59829;BME280;45708;51.848;107.620;2022-09-14T13:15:36;95433.88;;;6.25;92.55
59829;BME280;45708;51.848;107.620;2022-09-14T13:20:54;95441.72;;;6.40;93.15
59829;BME280;45708;51.848;107.620;2022-09-14T13:25:56;95445.72;;;6.36;93.50
59829;BME280;45708;51.848;107.620;2022-09-14T13:31:01;95414.97;;;6.30;93.08
59829;BME280;45708;51.848;107.620;2022-09-14T13:36:03;95422.94;;;6.22;92.72
59829;BME280;45708;51.848;107.620;2022-09-14T13:41:11;95429.19;;;6.21;93.31
59829;BME280;45708;51.848;107.620;2022-09-14T13:46:14;95445.91;;;6.20;92.85
59829;BME280;45708;51.848;107.620;2022-09-14T13:51:15;95425.97;;;6.04;93.46
59829;BME280;45708;51.848;107.620;2022-09-14T14:01:25;95428.63;;;6.25;93.63
59829;BME280;45708;51.848;107.620;2022-09-14T14:06:30;95422.38;;;6.41;93.54
59829;BME280;45708;51.848;107.620;2022-09-14T14:11:36;95396.59;;;6.30;93.46
59829;BME280;45708;51.848;107.620;2022-09-14T14:16:37;95402.47;;;6.32;93.69
59829;BME280;45708;51.848;107.620;2022-09-14T14:21:38;95373.75;;;6.24;93.57
59829;BME280;45708;51.848;107.620;2022-09-14T14:26:48;95381.31;;;6.19;93.80
59829;BME280;45708;51.848;107.620;2022-09-14T14:31:50;95399.22;;;6.30;93.91
59829;BME280;45708;51.848;107.620;2022-09-14T14:36:52;95413.19;;;6.52;93.66
59829;BME280;45708;51.848;107.620;2022-09-14T14:41:53;95401.03;;;6.65;93.92
59829;BME280;45708;51.848;107.620;2022-09-14T14:46:55;95415.78;;;6.66;94.33
59829;BME280;45708;51.848;107.620;2022-09-14T14:51:56;95404.38;;;6.59;93.94
59829;BME280;45708;51.848;107.620;2022-09-14T14:56:57;95390.94;;;6.48;94.01
59829;BME280;45708;51.848;107.620;2022-09-14T15:01:58;95333.00;;;6.06;93.56
59829;BME280;45708;51.848;107.620;2022-09-14T15:06:58;95373.56;;;6.10;93.94
59829;BME280;45708;51.848;107.620;2022-09-14T15:11:59;95401.88;;;6.51;93.72
59829;BME280;45708;51.848;107.620;2022-09-14T15:17:00;95353.84;;;6.15;93.71
59829;BME280;45708;51.848;107.620;2022-09-14T15:22:01;95384.94;;;6.18;93.97
59829;BME280;45708;51.848;107.620;2022-09-14T15:27:02;95367.22;;;6.20;94.35
59829;BME280;45708;51.848;107.620;2022-09-14T15:32:03;95373.38;;;6.12;94.07
59829;BME280;45708;51.848;107.620;2022-09-14T15:37:04;95364.34;;;6.15;94.47
59829;BME280;45708;51.848;107.620;2022-09-14T15:42:05;95372.47;;;6.20;94.34
59829;BME280;45708;51.848;107.620;2022-09-14T15:47:06;95342.72;;;6.13;94.66
59829;BME280;45708;51.848;107.620;2022-09-14T15:52:07;95350.16;;;6.09;94.40
59829;BME280;45708;51.848;107.620;2022-09-14T15:57:10;95343.25;;;6.23;94.85
59829;BME280;45708;51.848;107.620;2022-09-14T16:02:11;95342.88;;;6.26;94.94
59829;BME280;45708;51.848;107.620;2022-09-14T16:07:12;95333.38;;;6.25;94.43
59829;BME280;45708;51.848;107.620;2022-09-14T16:12:13;95335.94;;;6.39;94.20
59829;BME280;45708;51.848;107.620;2022-09-14T16:17:14;95334.03;;;6.48;94.36
59829;BME280;45708;51.848;107.620;2022-09-14T16:22:15;95313.03;;;6.48;94.72
59829;BME280;45708;51.848;107.620;2022-09-14T16:27:17;95314.03;;;6.26;94.12
59829;BME280;45708;51.848;107.620;2022-09-14T16:32:18;95316.09;;;6.30;94.03
59829;BME280;45708;51.848;107.620;2022-09-14T16:37:18;95320.09;;;6.26;94.60
59829;BME280;45708;51.848;107.620;2022-09-14T16:42:19;95303.38;;;6.13;94.05
59829;BME280;45708;51.848;107.620;2022-09-14T16:47:20;95302.75;;;6.10;94.54
59829;BME280;45708;51.848;107.620;2022-09-14T16:52:21;95300.50;;;6.07;94.07
59829;BME280;45708;51.848;107.620;2022-09-14T16:57:22;95313.88;;;6.13;94.62
59829;BME280;45708;51.848;107.620;2022-09-14T17:02:23;95295.91;;;6.09;94.38
59829;BME280;45708;51.848;107.620;2022-09-14T17:07:24;95298.00;;;5.99;94.71
59829;BME280;45708;51.848;107.620;2022-09-14T17:12:24;95284.53;;;6.02;94.34
59829;BME280;45708;51.848;107.620;2022-09-14T17:17:25;95297.34;;;6.12;95.04
59829;BME280;45708;51.848;107.620;2022-09-14T17:22:26;95296.47;;;6.26;94.47
59829;BME280;45708;51.848;107.620;2022-09-14T17:27:27;95296.75;;;6.17;94.76
59829;BME280;45708;51.848;107.620;2022-09-14T17:32:28;95280.09;;;6.03;94.52
59829;BME280;45708;51.848;107.620;2022-09-14T17:37:28;95257.66;;;6.00;94.33
59829;BME280;45708;51.848;107.620;2022-09-14T17:42:29;95243.91;;;5.98;94.81
59829;BME280;45708;51.848;107.620;2022-09-14T17:47:30;95246.44;;;6.06;95.04
59829;BME280;45708;51.848;107.620;2022-09-14T17:52:31;95231.53;;;6.07;95.35
59829;BME280;45708;51.848;107.620;2022-09-14T17:57:33;95219.69;;;6.18;94.93
59829;BME280;45708;51.848;107.620;2022-09-14T18:02:34;95211.75;;;6.32;94.99
59829;BME280;45708;51.848;107.620;2022-09-14T18:07:35;95209.63;;;6.43;95.04
59829;BME280;45708;51.848;107.620;2022-09-14T18:12:36;95201.56;;;6.44;95.19
59829;BME280;45708;51.848;107.620;2022-09-14T18:17:37;95217.31;;;6.44;95.14
59829;BME280;45708;51.848;107.620;2022-09-14T18:22:38;95210.88;;;6.47;95.62
59829;BME280;45708;51.848;107.620;2022-09-14T18:27:39;95213.13;;;6.50;95.11
59829;BME280;45708;51.848;107.620;2022-09-14T18:32:39;95209.84;;;6.41;94.77
59829;BME280;45708;51.848;107.620;2022-09-14T18:37:40;95202.28;;;6.31;94.59
59829;BME280;45708;51.848;107.620;2022-09-14T18:42:41;95194.59;;;6.30;95.12
59829;BME280;45708;51.848;107.620;2022-09-14T18:47:42;95197.53;;;6.42;95.27
59829;BME280;45708;51.848;107.620;2022-09-14T18:52:43;95189.72;;;6.27;94.87
59829;BME280;45708;51.848;107.620;2022-09-14T18:57:45;95182.47;;;6.29;94.61
59829;BME280;45708;51.848;107.620;2022-09-14T19:02:51;95182.13;;;6.38;94.32
59829;BME280;45708;51.848;107.620;2022-09-14T19:07:52;95167.84;;;6.20;94.79
59829;BME280;45708;51.848;107.620;2022-09-14T19:12:53;95179.16;;;6.20;94.57
59829;BME280;45708;51.848;107.620;2022-09-14T19:17:54;95152.94;;;6.20;94.92
59829;BME280;45708;51.848;107.620;2022-09-14T19:22:55;95152.00;;;6.28;94.34
59829;BME280;45708;51.848;107.620;2022-09-14T19:27:55;95144.56;;;6.31;94.63
59829;BME280;45708;51.848;107.620;2022-09-14T19:32:56;95142.13;;;6.30;94.34
59829;BME280;45708;51.848;107.620;2022-09-14T19:37:57;95145.75;;;6.29;94.65
59829;BME280;45708;51.848;107.620;2022-09-14T19:42:58;95161.94;;;6.39;94.15
59829;BME280;45708;51.848;107.620;2022-09-14T19:47:59;95155.53;;;6.42;94.76
59829;BME280;45708;51.848;107.620;2022-09-14T19:53:00;95174.03;;;6.61;94.72
59829;BME280;45708;51.848;107.620;2022-09-14T19:58:00;95177.91;;;6.65;94.15
59829;BME280;45708;51.848;107.620;2022-09-14T20:03:01;95177.13;;;6.71;94.52
59829;BME280;45708;51.848;107.620;2022-09-14T20:08:02;95169.03;;;6.66;94.83
59829;BME280;45708;51.848;107.620;2022-09-14T20:13:03;95166.16;;;6.61;94.62
59829;BME280;45708;51.848;107.620;2022-09-14T20:18:04;95183.53;;;6.62;94.76
59829;BME280;45708;51.848;107.620;2022-09-14T20:23:05;95186.41;;;6.67;94.62
59829;BME280;45708;51.848;107.620;2022-09-14T20:28:06;95163.81;;;6.73;94.33
59829;BME280;45708;51.848;107.620;2022-09-14T20:33:06;95166.72;;;6.85;93.88
59829;BME280;45708;51.848;107.620;2022-09-14T20:38:07;95165.09;;;6.84;94.65
59829;BME280;45708;51.848;107.620;2022-09-14T20:43:08;95157.03;;;6.85;94.56
59829;BME280;45708;51.848;107.620;2022-09-14T20:48:09;95147.72;;;6.83;94.35
59829;BME280;45708;51.848;107.620;2022-09-14T20:53:09;95162.69;;;6.89;94.38
59829;BME280;45708;51.848;107.620;2022-09-14T20:58:10;95163.91;;;6.93;94.42
59829;BME280;45708;51.848;107.620;2022-09-14T21:03:12;95164.94;;;6.98;93.93
59829;BME280;45708;51.848;107.620;2022-09-14T21:08:13;95161.16;;;7.01;93.85
59829;BME280;45708;51.848;107.620;2022-09-14T21:13:14;95159.13;;;7.03;94.40
59829;BME280;45708;51.848;107.620;2022-09-14T21:18:15;95151.25;;;7.03;94.22
59829;BME280;45708;51.848;107.620;2022-09-14T21:23:16;95137.66;;;6.93;94.01
59829;BME280;45708;51.848;107.620;2022-09-14T21:28:16;95138.13;;;7.03;94.58
59829;BME280;45708;51.848;107.620;2022-09-14T21:33:18;95146.41;;;7.07;94.03
59829;BME280;45708;51.848;107.620;2022-09-14T21:38:18;95148.66;;;7.10;94.41
59829;BME280;45708;51.848;107.620;2022-09-14T21:43:19;95128.63;;;7.02;94.13
59829;BME280;45708;51.848;107.620;2022-09-14T21:48:20;95134.09;;;7.07;94.40
59829;BME280;45708;51.848;107.620;2022-09-14T21:53:21;95134.09;;;7.07;94.13
59829;BME280;45708;51.848;107.620;2022-09-14T21:58:22;95131.06;;;7.10;94.30
59829;BME280;45708;51.848;107.620;2022-09-14T22:03:23;95117.53;;;7.07;94.46
59829;BME280;45708;51.848;107.620;2022-09-14T22:08:24;95121.34;;;7.04;94.27
59829;BME280;45708;51.848;107.620;2022-09-14T22:13:25;95120.75;;;7.02;94.29
59829;BME280;45708;51.848;107.620;2022-09-14T22:18:26;95116.66;;;6.93;94.56
59829;BME280;45708;51.848;107.620;2022-09-14T22:23:27;95121.06;;;6.86;93.83
59829;BME280;45708;51.848;107.620;2022-09-14T22:28:28;95124.28;;;6.81;94.46
59829;BME280;45708;51.848;107.620;2022-09-14T22:33:29;95106.84;;;6.67;93.82
59829;BME280;45708;51.848;107.620;2022-09-14T22:38:32;95121.47;;;6.83;93.50
59829;BME280;45708;51.848;107.620;2022-09-14T22:43:33;95123.91;;;6.91;94.07
59829;BME280;45708;51.848;107.620;2022-09-14T22:48:35;95126.34;;;6.99;94.53
59829;BME280;45708;51.848;107.620;2022-09-14T22:53:36;95131.06;;;7.10;94.23
59829;BME280;45708;51.848;107.620;2022-09-14T22:58:37;95130.06;;;7.18;93.99
59829;BME280;45708;51.848;107.620;2022-09-14T23:03:39;95126.63;;;7.17;94.04
59829;BME280;45708;51.848;107.620;2022-09-14T23:08:41;95135.19;;;7.26;93.90
59829;BME280;45708;51.848;107.620;2022-09-14T23:13:42;95134.97;;;7.27;93.96
59829;BME280;45708;51.848;107.620;2022-09-14T23:18:43;95150.56;;;7.36;93.98
59829;BME280;45708;51.848;107.620;2022-09-14T23:23:48;95154.38;;;7.26;93.95
59829;BME280;45708;51.848;107.620;2022-09-14T23:28:51;95145.44;;;7.14;93.40
59829;BME280;45708;51.848;107.620;2022-09-14T23:33:56;95148.66;;;7.16;94.08
59829;BME280;45708;51.848;107.620;2022-09-14T23:38:57;95151.28;;;7.16;93.37
59829;BME280;45708;51.848;107.620;2022-09-14T23:43:58;95147.50;;;7.32;93.34
59829;BME280;45708;51.848;107.620;2022-09-14T23:48:59;95152.75;;;7.25;93.38
59829;BME280;45708;51.848;107.620;2022-09-14T23:54:00;95149.66;;;7.15;92.89
59829;BME280;45708;51.848;107.620;2022-09-14T23:59:01;95139.13;;;7.02;92.66
